sensor_id;sensor_type;location;lat;lon;timestamp;P1;durP1;ratioP1;P2;durP2;ratioP2
37983;SDS011;61733;50.882;4.376;2022-07-24T00:00:55;18.13;;;14.10;;
37983;SDS011;61733;50.882;4.376;2022-07-24T00:03:21;21.15;;;13.13;;
37983;SDS011;61733;50.882;4.376;2022-07-24T00:05:47;39.50;;;14.43;;
37983;SDS011;61733;50.882;4.376;2022-07-24T00:08:13;24.38;;;15.35;;
37983;SDS011;61733;50.882;4.376;2022-07-24T00:10:39;20.48;;;13.23;;
37983;SDS011;61733;50.882;4.376;2022-07-24T00:13:05;31.25;;;14.30;;
37983;SDS011;61733;50.882;4.376;2022-07-24T00:15:30;27.23;;;13.80;;
37983;SDS011;61733;50.882;4.376;2022-07-24T00:17:56;21.80;;;12.18;;
37983;SDS011;61733;50.882;4.376;2022-07-24T00:20:22;18.40;;;13.20;;
37983;SDS011;61733;50.882;4.376;2022-07-24T00:22:48;27.08;;;13.90;;
37983;SDS011;61733;50.882;4.376;2022-07-24T00:25:14;18.92;;;13.32;;
37983;SDS011;61733;50.882;4.376;2022-07-24T00:27:40;19.05;;;13.00;;
37983;SDS011;61733;50.882;4.376;2022-07-24T00:30:06;25.73;;;14.57;;
37983;SDS011;61733;50.882;4.376;2022-07-24T00:32:32;19.05;;;14.30;;
37983;SDS011;61733;50.882;4.376;2022-07-24T00:34:58;20.48;;;14.18;;
37983;SDS011;61733;50.882;4.376;2022-07-24T00:37:24;19.02;;;14.63;;
37983;SDS011;61733;50.882;4.376;2022-07-24T00:39:50;24.80;;;16.55;;
37983;SDS011;61733;50.882;4.376;2022-07-24T00:42:15;26.92;;;17.20;;
37983;SDS011;61733;50.882;4.376;2022-07-24T00:44:41;35.58;;;16.00;;
37983;SDS011;61733;50.882;4.376;2022-07-24T00:47:07;26.42;;;16.23;;
37983;SDS011;61733;50.882;4.376;2022-07-24T00:49:33;23.30;;;18.08;;
37983;SDS011;61733;50.882;4.376;2022-07-24T00:51:58;26.55;;;17.52;;
37983;SDS011;61733;50.882;4.376;2022-07-24T00:54:25;22.25;;;16.65;;
37983;SDS011;61733;50.882;4.376;2022-07-24T00:56:51;23.60;;;16.80;;
37983;SDS011;61733;50.882;4.376;2022-07-24T00:59:18;21.83;;;16.52;;
37983;SDS011;61733;50.882;4.376;2022-07-24T01:01:45;25.23;;;16.05;;
37983;SDS011;61733;50.882;4.376;2022-07-24T01:04:12;22.27;;;15.50;;
37983;SDS011;61733;50.882;4.376;2022-07-24T01:06:41;23.98;;;15.65;;
37983;SDS011;61733;50.882;4.376;2022-07-24T01:09:08;32.17;;;20.38;;
37983;SDS011;61733;50.882;4.376;2022-07-24T01:11:35;24.58;;;17.10;;
37983;SDS011;61733;50.882;4.376;2022-07-24T01:14:02;27.02;;;17.45;;
37983;SDS011;61733;50.882;4.376;2022-07-24T01:16:28;33.00;;;17.30;;
37983;SDS011;61733;50.882;4.376;2022-07-24T01:18:53;28.60;;;17.92;;
37983;SDS011;61733;50.882;4.376;2022-07-24T01:21:23;27.15;;;21.60;;
37983;SDS011;61733;50.882;4.376;2022-07-24T01:23:50;32.38;;;20.05;;
37983;SDS011;61733;50.882;4.376;2022-07-24T01:26:16;33.00;;;21.30;;
37983;SDS011;61733;50.882;4.376;2022-07-24T01:28:43;35.90;;;24.77;;
37983;SDS011;61733;50.882;4.376;2022-07-24T01:31:08;30.67;;;22.13;;
37983;SDS011;61733;50.882;4.376;2022-07-24T01:33:35;35.63;;;25.00;;
37983;SDS011;61733;50.882;4.376;2022-07-24T01:36:00;31.00;;;24.75;;
37983;SDS011;61733;50.882;4.376;2022-07-24T01:38:26;36.63;;;25.55;;
37983;SDS011;61733;50.882;4.376;2022-07-24T01:40:52;41.55;;;25.30;;
37983;SDS011;61733;50.882;4.376;2022-07-24T01:43:19;39.80;;;22.73;;
37983;SDS011;61733;50.882;4.376;2022-07-24T01:45:46;36.72;;;22.75;;
37983;SDS011;61733;50.882;4.376;2022-07-24T01:48:12;33.47;;;23.55;;
37983;SDS011;61733;50.882;4.376;2022-07-24T01:50:38;32.20;;;22.80;;
37983;SDS011;61733;50.882;4.376;2022-07-24T01:53:04;36.88;;;25.30;;
37983;SDS011;61733;50.882;4.376;2022-07-24T01:55:30;44.80;;;28.42;;
37983;SDS011;61733;50.882;4.376;2022-07-24T01:57:56;32.67;;;25.77;;
37983;SDS011;61733;50.882;4.376;2022-07-24T02:00:22;34.60;;;23.35;;
37983;SDS011;61733;50.882;4.376;2022-07-24T02:02:48;35.10;;;26.38;;
37983;SDS011;61733;50.882;4.376;2022-07-24T02:05:14;35.85;;;24.10;;
37983;SDS011;61733;50.882;4.376;2022-07-24T02:07:41;37.05;;;25.02;;
37983;SDS011;61733;50.882;4.376;2022-07-24T02:10:08;37.75;;;24.50;;
37983;SDS011;61733;50.882;4.376;2022-07-24T02:12:35;33.47;;;25.20;;
37983;SDS011;61733;50.882;4.376;2022-07-24T02:15:01;33.33;;;24.40;;
37983;SDS011;61733;50.882;4.376;2022-07-24T02:17:27;33.35;;;25.27;;
37983;SDS011;61733;50.882;4.376;2022-07-24T02:19:53;36.10;;;22.25;;
37983;SDS011;61733;50.882;4.376;2022-07-24T02:22:19;35.22;;;22.92;;
37983;SDS011;61733;50.882;4.376;2022-07-24T02:24:45;33.38;;;22.33;;
37983;SDS011;61733;50.882;4.376;2022-07-24T02:27:10;25.67;;;20.52;;
37983;SDS011;61733;50.882;4.376;2022-07-24T02:29:36;36.10;;;20.33;;
37983;SDS011;61733;50.882;4.376;2022-07-24T02:32:02;29.60;;;22.48;;
37983;SDS011;61733;50.882;4.376;2022-07-24T02:34:28;31.10;;;20.27;;
37983;SDS011;61733;50.882;4.376;2022-07-24T02:36:54;30.70;;;19.70;;
37983;SDS011;61733;50.882;4.376;2022-07-24T02:39:20;27.25;;;20.35;;
37983;SDS011;61733;50.882;4.376;2022-07-24T02:41:46;29.40;;;20.48;;
37983;SDS011;61733;50.882;4.376;2022-07-24T02:44:12;30.20;;;21.58;;
37983;SDS011;61733;50.882;4.376;2022-07-24T02:46:37;33.85;;;20.25;;
37983;SDS011;61733;50.882;4.376;2022-07-24T02:49:03;24.63;;;17.75;;
37983;SDS011;61733;50.882;4.376;2022-07-24T02:51:29;31.77;;;18.63;;
37983;SDS011;61733;50.882;4.376;2022-07-24T02:53:54;27.73;;;18.52;;
37983;SDS011;61733;50.882;4.376;2022-07-24T02:56:20;28.08;;;15.93;;
37983;SDS011;61733;50.882;4.376;2022-07-24T02:58:46;23.52;;;16.08;;
37983;SDS011;61733;50.882;4.376;2022-07-24T03:01:11;28.63;;;17.52;;
37983;SDS011;61733;50.882;4.376;2022-07-24T03:03:37;24.52;;;19.20;;
37983;SDS011;61733;50.882;4.376;2022-07-24T03:06:03;33.53;;;18.02;;
37983;SDS011;61733;50.882;4.376;2022-07-24T03:08:29;36.13;;;22.77;;
37983;SDS011;61733;50.882;4.376;2022-07-24T03:10:55;32.95;;;21.63;;
37983;SDS011;61733;50.882;4.376;2022-07-24T03:13:21;33.90;;;22.63;;
37983;SDS011;61733;50.882;4.376;2022-07-24T03:15:47;43.58;;;22.55;;
37983;SDS011;61733;50.882;4.376;2022-07-24T03:18:13;35.83;;;22.73;;
37983;SDS011;61733;50.882;4.376;2022-07-24T03:20:38;35.50;;;21.90;;
37983;SDS011;61733;50.882;4.376;2022-07-24T03:23:04;30.80;;;21.30;;
37983;SDS011;61733;50.882;4.376;2022-07-24T03:25:30;35.50;;;20.58;;
37983;SDS011;61733;50.882;4.376;2022-07-24T03:27:56;31.08;;;18.73;;
37983;SDS011;61733;50.882;4.376;2022-07-24T03:30:23;29.80;;;19.00;;
37983;SDS011;61733;50.882;4.376;2022-07-24T03:32:49;29.98;;;19.65;;
37983;SDS011;61733;50.882;4.376;2022-07-24T03:35:15;33.78;;;20.95;;
37983;SDS011;61733;50.882;4.376;2022-07-24T03:37:40;34.67;;;21.48;;
37983;SDS011;61733;50.882;4.376;2022-07-24T03:40:06;28.40;;;19.40;;
37983;SDS011;61733;50.882;4.376;2022-07-24T03:42:33;26.35;;;18.23;;
37983;SDS011;61733;50.882;4.376;2022-07-24T03:44:59;24.95;;;17.52;;
37983;SDS011;61733;50.882;4.376;2022-07-24T03:47:25;27.15;;;19.95;;
37983;SDS011;61733;50.882;4.376;2022-07-24T03:49:51;35.20;;;19.88;;
37983;SDS011;61733;50.882;4.376;2022-07-24T03:52:17;36.03;;;20.88;;
37983;SDS011;61733;50.882;4.376;2022-07-24T03:54:43;31.30;;;19.45;;
37983;SDS011;61733;50.882;4.376;2022-07-24T03:57:09;27.90;;;19.17;;
37983;SDS011;61733;50.882;4.376;2022-07-24T03:59:34;30.90;;;19.77;;
37983;SDS011;61733;50.882;4.376;2022-07-24T04:02:00;31.75;;;18.88;;
37983;SDS011;61733;50.882;4.376;2022-07-24T04:04:26;41.63;;;22.35;;
37983;SDS011;61733;50.882;4.376;2022-07-24T04:06:52;31.27;;;21.02;;
37983;SDS011;61733;50.882;4.376;2022-07-24T04:09:17;46.00;;;24.17;;
37983;SDS011;61733;50.882;4.376;2022-07-24T04:11:43;33.15;;;23.40;;
37983;SDS011;61733;50.882;4.376;2022-07-24T04:14:09;38.10;;;23.50;;
37983;SDS011;61733;50.882;4.376;2022-07-24T04:16:35;37.78;;;22.10;;
37983;SDS011;61733;50.882;4.376;2022-07-24T04:19:01;26.55;;;18.38;;
37983;SDS011;61733;50.882;4.376;2022-07-24T04:21:27;44.67;;;22.55;;
37983;SDS011;61733;50.882;4.376;2022-07-24T04:23:53;26.95;;;20.50;;
37983;SDS011;61733;50.882;4.376;2022-07-24T04:26:19;29.48;;;20.77;;
37983;SDS011;61733;50.882;4.376;2022-07-24T04:28:46;38.95;;;20.38;;
37983;SDS011;61733;50.882;4.376;2022-07-24T04:31:12;37.67;;;24.63;;
37983;SDS011;61733;50.882;4.376;2022-07-24T04:33:38;36.78;;;24.50;;
37983;SDS011;61733;50.882;4.376;2022-07-24T04:36:04;33.13;;;22.90;;
37983;SDS011;61733;50.882;4.376;2022-07-24T04:38:32;37.58;;;20.30;;
37983;SDS011;61733;50.882;4.376;2022-07-24T04:40:58;27.38;;;18.48;;
37983;SDS011;61733;50.882;4.376;2022-07-24T04:43:24;29.88;;;18.63;;
37983;SDS011;61733;50.882;4.376;2022-07-24T04:45:50;27.67;;;18.13;;
37983;SDS011;61733;50.882;4.376;2022-07-24T04:48:16;25.38;;;18.98;;
37983;SDS011;61733;50.882;4.376;2022-07-24T04:50:42;31.60;;;18.80;;
37983;SDS011;61733;50.882;4.376;2022-07-24T04:53:08;27.23;;;19.27;;
37983;SDS011;61733;50.882;4.376;2022-07-24T04:55:34;32.88;;;20.33;;
37983;SDS011;61733;50.882;4.376;2022-07-24T04:58:00;29.10;;;18.27;;
37983;SDS011;61733;50.882;4.376;2022-07-24T05:00:25;34.17;;;19.77;;
37983;SDS011;61733;50.882;4.376;2022-07-24T05:02:51;35.78;;;20.15;;
37983;SDS011;61733;50.882;4.376;2022-07-24T05:05:17;25.80;;;17.77;;
37983;SDS011;61733;50.882;4.376;2022-07-24T05:07:43;22.88;;;17.67;;
37983;SDS011;61733;50.882;4.376;2022-07-24T05:10:09;30.90;;;18.30;;
37983;SDS011;61733;50.882;4.376;2022-07-24T05:12:35;26.85;;;18.92;;
37983;SDS011;61733;50.882;4.376;2022-07-24T05:15:01;33.58;;;20.35;;
37983;SDS011;61733;50.882;4.376;2022-07-24T05:17:26;25.30;;;16.77;;
37983;SDS011;61733;50.882;4.376;2022-07-24T05:19:52;27.38;;;17.85;;
37983;SDS011;61733;50.882;4.376;2022-07-24T05:22:18;27.42;;;18.40;;
37983;SDS011;61733;50.882;4.376;2022-07-24T05:24:44;24.75;;;16.98;;
37983;SDS011;61733;50.882;4.376;2022-07-24T05:27:10;23.00;;;14.82;;
37983;SDS011;61733;50.882;4.376;2022-07-24T05:29:35;25.35;;;16.45;;
37983;SDS011;61733;50.882;4.376;2022-07-24T05:32:01;23.60;;;14.98;;
37983;SDS011;61733;50.882;4.376;2022-07-24T05:34:27;21.95;;;15.32;;
37983;SDS011;61733;50.882;4.376;2022-07-24T05:36:54;25.77;;;13.38;;
37983;SDS011;61733;50.882;4.376;2022-07-24T05:39:20;22.40;;;12.68;;
37983;SDS011;61733;50.882;4.376;2022-07-24T05:41:46;20.88;;;12.65;;
37983;SDS011;61733;50.882;4.376;2022-07-24T05:44:12;23.55;;;12.05;;
37983;SDS011;61733;50.882;4.376;2022-07-24T05:46:38;19.85;;;13.80;;
37983;SDS011;61733;50.882;4.376;2022-07-24T05:49:04;22.73;;;13.48;;
37983;SDS011;61733;50.882;4.376;2022-07-24T05:51:29;22.10;;;12.65;;
37983;SDS011;61733;50.882;4.376;2022-07-24T05:53:55;14.73;;;10.15;;
37983;SDS011;61733;50.882;4.376;2022-07-24T05:56:21;18.60;;;10.05;;
37983;SDS011;61733;50.882;4.376;2022-07-24T05:58:47;19.30;;;9.48;;
37983;SDS011;61733;50.882;4.376;2022-07-24T06:01:12;16.98;;;9.43;;
37983;SDS011;61733;50.882;4.376;2022-07-24T06:03:39;18.00;;;10.50;;
37983;SDS011;61733;50.882;4.376;2022-07-24T06:06:05;14.60;;;9.55;;
37983;SDS011;61733;50.882;4.376;2022-07-24T06:08:31;14.93;;;9.68;;
37983;SDS011;61733;50.882;4.376;2022-07-24T06:10:57;18.63;;;10.85;;
37983;SDS011;61733;50.882;4.376;2022-07-24T06:13:23;14.68;;;9.10;;
37983;SDS011;61733;50.882;4.376;2022-07-24T06:15:48;22.63;;;9.38;;
37983;SDS011;61733;50.882;4.376;2022-07-24T06:18:14;19.98;;;10.35;;
37983;SDS011;61733;50.882;4.376;2022-07-24T06:20:40;14.60;;;6.93;;
37983;SDS011;61733;50.882;4.376;2022-07-24T06:23:06;11.05;;;7.75;;
37983;SDS011;61733;50.882;4.376;2022-07-24T06:25:32;15.65;;;6.45;;
37983;SDS011;61733;50.882;4.376;2022-07-24T06:27:58;14.90;;;6.55;;
37983;SDS011;61733;50.882;4.376;2022-07-24T06:30:24;8.55;;;6.18;;
37983;SDS011;61733;50.882;4.376;2022-07-24T06:32:54;9.23;;;6.18;;
37983;SDS011;61733;50.882;4.376;2022-07-24T06:35:22;9.40;;;6.25;;
37983;SDS011;61733;50.882;4.376;2022-07-24T06:37:48;11.73;;;5.88;;
37983;SDS011;61733;50.882;4.376;2022-07-24T06:40:15;8.90;;;6.50;;
37983;SDS011;61733;50.882;4.376;2022-07-24T06:42:42;7.20;;;5.85;;
37983;SDS011;61733;50.882;4.376;2022-07-24T06:45:09;11.27;;;6.00;;
37983;SDS011;61733;50.882;4.376;2022-07-24T06:47:35;11.35;;;5.97;;
37983;SDS011;61733;50.882;4.376;2022-07-24T06:50:01;9.65;;;6.32;;
37983;SDS011;61733;50.882;4.376;2022-07-24T06:52:28;14.65;;;6.47;;
37983;SDS011;61733;50.882;4.376;2022-07-24T06:54:54;11.70;;;6.00;;
37983;SDS011;61733;50.882;4.376;2022-07-24T06:57:20;6.97;;;4.72;;
37983;SDS011;61733;50.882;4.376;2022-07-24T06:59:45;11.75;;;6.10;;
37983;SDS011;61733;50.882;4.376;2022-07-24T07:02:11;11.75;;;6.07;;
37983;SDS011;61733;50.882;4.376;2022-07-24T07:04:37;8.98;;;5.20;;
37983;SDS011;61733;50.882;4.376;2022-07-24T07:07:03;12.25;;;4.28;;
37983;SDS011;61733;50.882;4.376;2022-07-24T07:09:29;10.18;;;5.03;;
37983;SDS011;61733;50.882;4.376;2022-07-24T07:11:55;10.40;;;5.25;;
37983;SDS011;61733;50.882;4.376;2022-07-24T07:14:21;8.10;;;4.75;;
37983;SDS011;61733;50.882;4.376;2022-07-24T07:16:47;8.70;;;4.38;;
37983;SDS011;61733;50.882;4.376;2022-07-24T07:19:13;6.45;;;4.60;;
37983;SDS011;61733;50.882;4.376;2022-07-24T07:21:39;7.70;;;3.90;;
37983;SDS011;61733;50.882;4.376;2022-07-24T07:24:07;11.15;;;4.03;;
37983;SDS011;61733;50.882;4.376;2022-07-24T07:26:33;8.80;;;4.22;;
37983;SDS011;61733;50.882;4.376;2022-07-24T07:28:58;12.45;;;4.20;;
37983;SDS011;61733;50.882;4.376;2022-07-24T07:31:25;9.27;;;3.63;;
37983;SDS011;61733;50.882;4.376;2022-07-24T07:33:53;7.60;;;3.78;;
37983;SDS011;61733;50.882;4.376;2022-07-24T07:36:19;10.40;;;4.43;;
37983;SDS011;61733;50.882;4.376;2022-07-24T07:38:45;6.93;;;3.35;;
37983;SDS011;61733;50.882;4.376;2022-07-24T07:41:11;6.32;;;4.00;;
37983;SDS011;61733;50.882;4.376;2022-07-24T07:43:37;10.38;;;4.45;;
37983;SDS011;61733;50.882;4.376;2022-07-24T07:46:04;7.15;;;3.20;;
37983;SDS011;61733;50.882;4.376;2022-07-24T07:48:30;6.65;;;3.97;;
37983;SDS011;61733;50.882;4.376;2022-07-24T07:50:56;9.32;;;3.50;;
37983;SDS011;61733;50.882;4.376;2022-07-24T07:53:22;8.30;;;3.35;;
37983;SDS011;61733;50.882;4.376;2022-07-24T07:55:48;6.30;;;3.17;;
37983;SDS011;61733;50.882;4.376;2022-07-24T07:58:17;5.90;;;3.22;;
37983;SDS011;61733;50.882;4.376;2022-07-24T08:00:43;7.28;;;3.55;;
37983;SDS011;61733;50.882;4.376;2022-07-24T08:03:10;4.90;;;2.42;;
37983;SDS011;61733;50.882;4.376;2022-07-24T08:05:36;5.97;;;2.60;;
37983;SDS011;61733;50.882;4.376;2022-07-24T08:08:05;6.28;;;3.08;;
37983;SDS011;61733;50.882;4.376;2022-07-24T08:10:31;5.78;;;3.38;;
37983;SDS011;61733;50.882;4.376;2022-07-24T08:12:57;10.13;;;2.83;;
37983;SDS011;61733;50.882;4.376;2022-07-24T08:15:23;4.55;;;2.80;;
37983;SDS011;61733;50.882;4.376;2022-07-24T08:17:55;7.80;;;3.15;;
37983;SDS011;61733;50.882;4.376;2022-07-24T08:20:22;4.28;;;3.47;;
37983;SDS011;61733;50.882;4.376;2022-07-24T08:22:49;5.72;;;3.22;;
37983;SDS011;61733;50.882;4.376;2022-07-24T08:25:15;6.15;;;2.65;;
37983;SDS011;61733;50.882;4.376;2022-07-24T08:27:42;9.00;;;2.65;;
37983;SDS011;61733;50.882;4.376;2022-07-24T08:30:08;11.60;;;2.80;;
37983;SDS011;61733;50.882;4.376;2022-07-24T08:32:35;6.55;;;2.95;;
37983;SDS011;61733;50.882;4.376;2022-07-24T08:35:03;9.27;;;3.22;;
37983;SDS011;61733;50.882;4.376;2022-07-24T08:37:29;6.30;;;3.13;;
37983;SDS011;61733;50.882;4.376;2022-07-24T08:40:00;5.18;;;2.78;;
37983;SDS011;61733;50.882;4.376;2022-07-24T08:42:25;8.85;;;3.10;;
37983;SDS011;61733;50.882;4.376;2022-07-24T08:44:51;8.52;;;2.83;;
37983;SDS011;61733;50.882;4.376;2022-07-24T08:47:17;4.65;;;2.42;;
37983;SDS011;61733;50.882;4.376;2022-07-24T08:49:44;4.60;;;2.85;;
37983;SDS011;61733;50.882;4.376;2022-07-24T08:52:13;5.88;;;2.88;;
37983;SDS011;61733;50.882;4.376;2022-07-24T08:54:39;5.57;;;3.03;;
37983;SDS011;61733;50.882;4.376;2022-07-24T08:57:06;3.53;;;2.25;;
37983;SDS011;61733;50.882;4.376;2022-07-24T08:59:31;7.35;;;2.35;;
37983;SDS011;61733;50.882;4.376;2022-07-24T09:01:57;6.60;;;2.38;;
37983;SDS011;61733;50.882;4.376;2022-07-24T09:07:12;6.22;;;4.28;;
37983;SDS011;61733;50.882;4.376;2022-07-24T09:09:38;2.75;;;1.88;;
37983;SDS011;61733;50.882;4.376;2022-07-24T09:14:43;4.32;;;2.35;;
37983;SDS011;61733;50.882;4.376;2022-07-24T09:17:20;3.25;;;2.22;;
37983;SDS011;61733;50.882;4.376;2022-07-24T09:22:35;9.18;;;2.00;;
37983;SDS011;61733;50.882;4.376;2022-07-24T09:30:31;5.07;;;2.33;;
37983;SDS011;61733;50.882;4.376;2022-07-24T09:35:35;3.67;;;2.03;;
37983;SDS011;61733;50.882;4.376;2022-07-24T09:38:13;3.30;;;2.05;;
37983;SDS011;61733;50.882;4.376;2022-07-24T09:40:49;4.20;;;2.10;;
37983;SDS011;61733;50.882;4.376;2022-07-24T09:46:06;5.30;;;2.05;;
37983;SDS011;61733;50.882;4.376;2022-07-24T09:51:19;5.95;;;2.47;;
37983;SDS011;61733;50.882;4.376;2022-07-24T09:53:46;4.28;;;2.22;;
37983;SDS011;61733;50.882;4.376;2022-07-24T09:56:17;5.07;;;1.90;;
37983;SDS011;61733;50.882;4.376;2022-07-24T10:01:17;5.60;;;1.95;;
37983;SDS011;61733;50.882;4.376;2022-07-24T10:03:45;6.72;;;1.75;;
37983;SDS011;61733;50.882;4.376;2022-07-24T10:06:16;2.80;;;2.15;;
37983;SDS011;61733;50.882;4.376;2022-07-24T10:08:49;4.93;;;1.70;;
37983;SDS011;61733;50.882;4.376;2022-07-24T10:11:16;7.35;;;1.77;;
37983;SDS011;61733;50.882;4.376;2022-07-24T10:13:44;3.63;;;2.28;;
37983;SDS011;61733;50.882;4.376;2022-07-24T10:18:49;2.63;;;1.88;;
37983;SDS011;61733;50.882;4.376;2022-07-24T10:21:30;2.58;;;1.58;;
37983;SDS011;61733;50.882;4.376;2022-07-24T10:31:38;3.67;;;1.63;;
37983;SDS011;61733;50.882;4.376;2022-07-24T10:37:31;4.47;;;1.70;;
37983;SDS011;61733;50.882;4.376;2022-07-24T10:42:27;8.90;;;1.95;;
37983;SDS011;61733;50.882;4.376;2022-07-24T10:47:43;4.57;;;1.85;;
37983;SDS011;61733;50.882;4.376;2022-07-24T10:50:10;2.15;;;1.90;;
37983;SDS011;61733;50.882;4.376;2022-07-24T10:52:36;4.25;;;1.98;;
37983;SDS011;61733;50.882;4.376;2022-07-24T11:00:31;4.53;;;2.63;;
37983;SDS011;61733;50.882;4.376;2022-07-24T11:08:39;2.47;;;2.10;;
37983;SDS011;61733;50.882;4.376;2022-07-24T11:11:07;5.10;;;1.50;;
37983;SDS011;61733;50.882;4.376;2022-07-24T14:29:24;6.72;;;1.90;;
37983;SDS011;61733;50.882;4.376;2022-07-24T14:31:50;3.65;;;2.55;;
37983;SDS011;61733;50.882;4.376;2022-07-24T14:34:16;9.45;;;2.33;;
37983;SDS011;61733;50.882;4.376;2022-07-24T14:36:42;3.95;;;2.40;;
37983;SDS011;61733;50.882;4.376;2022-07-24T14:39:08;4.10;;;2.00;;
37983;SDS011;61733;50.882;4.376;2022-07-24T14:41:34;3.50;;;3.13;;
37983;SDS011;61733;50.882;4.376;2022-07-24T14:44:00;7.20;;;2.35;;
37983;SDS011;61733;50.882;4.376;2022-07-24T14:46:27;9.68;;;3.33;;
37983;SDS011;61733;50.882;4.376;2022-07-24T14:48:53;5.40;;;3.10;;
37983;SDS011;61733;50.882;4.376;2022-07-24T14:51:18;44.53;;;4.88;;
37983;SDS011;61733;50.882;4.376;2022-07-24T14:53:44;41.13;;;4.57;;
37983;SDS011;61733;50.882;4.376;2022-07-24T14:56:10;4.18;;;2.35;;
37983;SDS011;61733;50.882;4.376;2022-07-24T14:58:36;5.15;;;3.65;;
37983;SDS011;61733;50.882;4.376;2022-07-24T15:01:02;4.45;;;2.95;;
37983;SDS011;61733;50.882;4.376;2022-07-24T15:03:30;6.47;;;3.13;;
37983;SDS011;61733;50.882;4.376;2022-07-24T15:05:56;6.70;;;3.40;;
37983;SDS011;61733;50.882;4.376;2022-07-24T15:08:22;2.95;;;2.65;;
37983;SDS011;61733;50.882;4.376;2022-07-24T15:10:48;2.80;;;2.55;;
37983;SDS011;61733;50.882;4.376;2022-07-24T15:13:14;3.72;;;2.67;;
37983;SDS011;61733;50.882;4.376;2022-07-24T15:15:39;7.28;;;4.13;;
37983;SDS011;61733;50.882;4.376;2022-07-24T15:18:05;4.63;;;2.75;;
37983;SDS011;61733;50.882;4.376;2022-07-24T15:20:31;8.10;;;2.90;;
37983;SDS011;61733;50.882;4.376;2022-07-24T15:22:57;5.80;;;2.70;;
37983;SDS011;61733;50.882;4.376;2022-07-24T15:25:23;5.22;;;2.97;;
37983;SDS011;61733;50.882;4.376;2022-07-24T15:27:48;7.55;;;3.40;;
37983;SDS011;61733;50.882;4.376;2022-07-24T15:30:15;10.57;;;4.07;;
37983;SDS011;61733;50.882;4.376;2022-07-24T15:32:42;3.70;;;3.28;;
37983;SDS011;61733;50.882;4.376;2022-07-24T15:35:08;5.72;;;2.80;;
37983;SDS011;61733;50.882;4.376;2022-07-24T15:37:33;6.18;;;2.97;;
37983;SDS011;61733;50.882;4.376;2022-07-24T15:39:59;5.18;;;2.67;;
37983;SDS011;61733;50.882;4.376;2022-07-24T15:42:26;3.33;;;2.78;;
37983;SDS011;61733;50.882;4.376;2022-07-24T15:44:52;4.95;;;3.20;;
37983;SDS011;61733;50.882;4.376;2022-07-24T15:47:18;9.98;;;3.35;;
37983;SDS011;61733;50.882;4.376;2022-07-24T15:49:44;7.93;;;3.30;;
37983;SDS011;61733;50.882;4.376;2022-07-24T15:52:10;4.30;;;2.90;;
37983;SDS011;61733;50.882;4.376;2022-07-24T15:54:36;7.05;;;3.90;;
37983;SDS011;61733;50.882;4.376;2022-07-24T15:57:02;9.10;;;3.25;;
37983;SDS011;61733;50.882;4.376;2022-07-24T15:59:28;3.17;;;2.83;;
37983;SDS011;61733;50.882;4.376;2022-07-24T16:01:53;4.72;;;3.22;;
37983;SDS011;61733;50.882;4.376;2022-07-24T16:04:19;3.28;;;2.97;;
37983;SDS011;61733;50.882;4.376;2022-07-24T16:06:46;4.80;;;3.33;;
37983;SDS011;61733;50.882;4.376;2022-07-24T16:09:12;6.65;;;3.10;;
37983;SDS011;61733;50.882;4.376;2022-07-24T16:11:39;4.57;;;3.03;;
37983;SDS011;61733;50.882;4.376;2022-07-24T16:14:05;5.75;;;3.90;;
37983;SDS011;61733;50.882;4.376;2022-07-24T16:16:31;4.28;;;3.13;;
37983;SDS011;61733;50.882;4.376;2022-07-24T16:18:57;9.07;;;3.45;;
37983;SDS011;61733;50.882;4.376;2022-07-24T16:21:22;7.82;;;3.17;;
37983;SDS011;61733;50.882;4.376;2022-07-24T16:23:49;6.95;;;3.33;;
37983;SDS011;61733;50.882;4.376;2022-07-24T16:26:14;5.45;;;3.00;;
37983;SDS011;61733;50.882;4.376;2022-07-24T16:28:40;6.85;;;3.17;;
37983;SDS011;61733;50.882;4.376;2022-07-24T16:31:06;8.50;;;3.42;;
37983;SDS011;61733;50.882;4.376;2022-07-24T16:33:32;4.60;;;2.75;;
37983;SDS011;61733;50.882;4.376;2022-07-24T16:35:58;4.03;;;2.60;;
37983;SDS011;61733;50.882;4.376;2022-07-24T16:38:24;5.20;;;3.05;;
37983;SDS011;61733;50.882;4.376;2022-07-24T16:40:50;8.80;;;2.60;;
37983;SDS011;61733;50.882;4.376;2022-07-24T16:43:16;5.05;;;3.38;;
37983;SDS011;61733;50.882;4.376;2022-07-24T16:45:43;3.97;;;3.58;;
37983;SDS011;61733;50.882;4.376;2022-07-24T16:48:09;4.28;;;2.42;;
37983;SDS011;61733;50.882;4.376;2022-07-24T16:50:35;3.83;;;3.05;;
37983;SDS011;61733;50.882;4.376;2022-07-24T16:53:02;5.72;;;2.60;;
37983;SDS011;61733;50.882;4.376;2022-07-24T16:55:28;5.30;;;3.45;;
37983;SDS011;61733;50.882;4.376;2022-07-24T16:57:54;3.83;;;2.85;;
37983;SDS011;61733;50.882;4.376;2022-07-24T17:00:20;6.72;;;3.83;;
37983;SDS011;61733;50.882;4.376;2022-07-24T17:02:46;6.28;;;3.10;;
37983;SDS011;61733;50.882;4.376;2022-07-24T17:05:12;4.57;;;2.92;;
37983;SDS011;61733;50.882;4.376;2022-07-24T17:07:40;6.18;;;2.63;;
37983;SDS011;61733;50.882;4.376;2022-07-24T17:10:06;4.05;;;3.05;;
37983;SDS011;61733;50.882;4.376;2022-07-24T17:12:32;3.00;;;2.72;;
37983;SDS011;61733;50.882;4.376;2022-07-24T17:14:58;9.63;;;3.80;;
37983;SDS011;61733;50.882;4.376;2022-07-24T17:17:24;4.68;;;2.88;;
37983;SDS011;61733;50.882;4.376;2022-07-24T17:20:10;3.45;;;2.92;;
37983;SDS011;61733;50.882;4.376;2022-07-24T17:22:36;4.25;;;2.58;;
37983;SDS011;61733;50.882;4.376;2022-07-24T17:25:01;3.45;;;2.88;;
37983;SDS011;61733;50.882;4.376;2022-07-24T17:27:27;6.05;;;3.13;;
37983;SDS011;61733;50.882;4.376;2022-07-24T17:29:53;7.28;;;2.85;;
37983;SDS011;61733;50.882;4.376;2022-07-24T17:32:22;4.10;;;2.90;;
37983;SDS011;61733;50.882;4.376;2022-07-24T17:34:48;6.88;;;2.92;;
37983;SDS011;61733;50.882;4.376;2022-07-24T17:37:13;6.32;;;3.00;;
37983;SDS011;61733;50.882;4.376;2022-07-24T17:39:39;11.07;;;4.70;;
37983;SDS011;61733;50.882;4.376;2022-07-24T17:42:05;4.10;;;3.08;;
37983;SDS011;61733;50.882;4.376;2022-07-24T17:44:31;7.05;;;3.35;;
37983;SDS011;61733;50.882;4.376;2022-07-24T17:46:57;5.82;;;3.33;;
37983;SDS011;61733;50.882;4.376;2022-07-24T17:49:23;9.13;;;3.90;;
37983;SDS011;61733;50.882;4.376;2022-07-24T17:51:48;3.00;;;2.75;;
37983;SDS011;61733;50.882;4.376;2022-07-24T17:54:14;6.82;;;3.38;;
37983;SDS011;61733;50.882;4.376;2022-07-24T17:56:40;3.92;;;2.88;;
37983;SDS011;61733;50.882;4.376;2022-07-24T17:59:06;4.57;;;3.42;;
37983;SDS011;61733;50.882;4.376;2022-07-24T18:01:31;6.13;;;3.58;;
37983;SDS011;61733;50.882;4.376;2022-07-24T18:03:57;4.78;;;3.17;;
37983;SDS011;61733;50.882;4.376;2022-07-24T18:06:23;4.03;;;2.75;;
37983;SDS011;61733;50.882;4.376;2022-07-24T18:08:49;5.32;;;3.80;;
37983;SDS011;61733;50.882;4.376;2022-07-24T18:11:15;4.43;;;3.45;;
37983;SDS011;61733;50.882;4.376;2022-07-24T18:13:40;5.47;;;3.50;;
37983;SDS011;61733;50.882;4.376;2022-07-24T18:16:06;5.53;;;3.13;;
37983;SDS011;61733;50.882;4.376;2022-07-24T18:18:32;8.73;;;3.78;;
37983;SDS011;61733;50.882;4.376;2022-07-24T18:20:58;6.97;;;3.83;;
37983;SDS011;61733;50.882;4.376;2022-07-24T18:23:23;11.80;;;4.22;;
37983;SDS011;61733;50.882;4.376;2022-07-24T18:25:49;6.93;;;3.08;;
37983;SDS011;61733;50.882;4.376;2022-07-24T18:28:15;6.18;;;3.55;;
37983;SDS011;61733;50.882;4.376;2022-07-24T18:30:41;8.63;;;3.78;;
37983;SDS011;61733;50.882;4.376;2022-07-24T18:33:07;5.70;;;3.55;;
37983;SDS011;61733;50.882;4.376;2022-07-24T18:35:33;4.57;;;3.30;;
37983;SDS011;61733;50.882;4.376;2022-07-24T18:37:59;4.38;;;3.25;;
37983;SDS011;61733;50.882;4.376;2022-07-24T18:40:25;3.80;;;3.50;;